createdAt,value
2022-08-30T00:02:10.685Z,18.60
2022-08-30T00:04:37.593Z,18.70
2022-08-30T00:07:04.509Z,18.70
2022-08-30T00:09:32.165Z,18.60
2022-08-30T00:11:59.731Z,18.70
2022-08-30T00:14:27.540Z,18.80
2022-08-30T00:16:55.343Z,18.90
2022-08-30T00:19:22.083Z,18.80
2022-08-30T00:21:48.790Z,18.80
2022-08-30T00:24:15.488Z,18.90
2022-08-30T00:26:42.180Z,19.00
2022-08-30T00:29:08.890Z,18.90
2022-08-30T00:31:35.653Z,18.90
2022-08-30T00:34:02.421Z,18.90
2022-08-30T00:36:29.321Z,18.90
2022-08-30T00:38:56.046Z,18.90
2022-08-30T00:41:22.973Z,18.90
2022-08-30T00:43:49.797Z,19.00
2022-08-30T00:46:16.602Z,18.80
2022-08-30T00:48:48.323Z,18.60
2022-08-30T00:51:16.042Z,18.50
2022-08-30T00:53:47.421Z,18.50
2022-08-30T00:56:15.132Z,18.50
2022-08-30T00:58:46.429Z,18.50
2022-08-30T01:01:13.677Z,18.60
2022-08-30T01:03:41.790Z,18.60
2022-08-30T01:06:08.876Z,18.50
2022-08-30T01:08:35.910Z,18.40
2022-08-30T01:11:04.110Z,18.40
2022-08-30T01:13:32.552Z,18.50
2022-08-30T01:16:02.587Z,18.60
2022-08-30T01:18:31.345Z,18.60
2022-08-30T01:21:35.742Z,18.70
2022-08-30T01:24:04.671Z,18.60
2022-08-30T01:26:32.758Z,18.50
2022-08-30T01:29:04.666Z,18.60
2022-08-30T01:31:32.677Z,18.60
2022-08-30T01:34:01.489Z,18.50
2022-08-30T01:36:29.019Z,18.50
2022-08-30T01:38:57.952Z,18.60
2022-08-30T01:41:34.270Z,18.50
2022-08-30T01:44:07.519Z,18.40
2022-08-30T01:46:37.896Z,18.50
2022-08-30T01:49:10.095Z,18.50
2022-08-30T01:51:37.709Z,18.50
2022-08-30T01:54:04.750Z,18.40
2022-08-30T01:56:31.618Z,18.10
2022-08-30T01:59:02.638Z,18.00
2022-08-30T02:01:32.599Z,18.00
2022-08-30T02:04:00.222Z,18.00
2022-08-30T02:06:27.395Z,18.00
2022-08-30T02:08:54.220Z,18.10
2022-08-30T02:11:21.070Z,18.10
2022-08-30T02:13:47.898Z,18.10
2022-08-30T02:16:17.794Z,18.10
2022-08-30T02:18:45.220Z,18.20
2022-08-30T02:21:12.998Z,18.00
2022-08-30T02:23:40.057Z,18.10
2022-08-30T02:26:07.541Z,18.20
2022-08-30T02:28:34.617Z,18.10
2022-08-30T02:31:10.977Z,18.20
2022-08-30T02:33:38.254Z,18.30
2022-08-30T02:36:08.249Z,18.30
2022-08-30T02:38:35.592Z,18.40
2022-08-30T02:41:02.495Z,18.40
2022-08-30T02:43:29.217Z,18.40
2022-08-30T02:45:56.134Z,18.40
2022-08-30T02:48:22.930Z,18.30
2022-08-30T02:50:52.109Z,18.10
2022-08-30T02:53:21.073Z,18.00
2022-08-30T02:55:48.566Z,17.90
2022-08-30T02:58:15.523Z,18.00
2022-08-30T03:00:42.753Z,17.90
2022-08-30T03:03:09.734Z,18.00
2022-08-30T03:05:39.820Z,18.10
2022-08-30T03:08:07.439Z,18.10
2022-08-30T03:10:34.289Z,18.30
2022-08-30T03:13:01.044Z,18.30
2022-08-30T03:15:28.203Z,18.30
2022-08-30T03:17:55.565Z,18.40
2022-08-30T03:20:23.314Z,18.20
2022-08-30T03:22:50.892Z,18.30
2022-08-30T03:25:18.082Z,18.10
2022-08-30T03:27:44.829Z,18.20
2022-08-30T03:30:12.547Z,18.20
2022-08-30T03:32:39.933Z,18.00
2022-08-30T03:35:07.990Z,17.80
2022-08-30T03:37:35.551Z,17.90
2022-08-30T03:40:04.450Z,18.00
2022-08-30T03:42:32.863Z,17.90
2022-08-30T03:45:02.219Z,17.70
2022-08-30T03:47:29.443Z,17.80
2022-08-30T03:49:56.553Z,17.80
2022-08-30T03:52:23.544Z,17.60
2022-08-30T03:54:50.341Z,17.70
2022-08-30T03:57:19.692Z,17.80
2022-08-30T03:59:46.957Z,17.90
2022-08-30T04:02:13.829Z,17.90
2022-08-30T04:04:40.585Z,17.80
2022-08-30T04:07:07.306Z,17.80
2022-08-30T04:09:34.624Z,17.70
2022-08-30T04:12:01.405Z,17.70
2022-08-30T04:14:28.119Z,17.70
2022-08-30T04:16:54.835Z,17.70
2022-08-30T04:19:21.706Z,17.70
2022-08-30T04:21:48.407Z,17.70
2022-08-30T04:24:15.338Z,17.60
2022-08-30T04:26:42.528Z,17.50
2022-08-30T04:29:11.669Z,17.70
2022-08-30T04:31:38.493Z,17.50
2022-08-30T04:34:05.172Z,17.50
2022-08-30T04:36:31.886Z,17.40
2022-08-30T04:38:59.070Z,17.40
2022-08-30T04:41:25.738Z,17.40
2022-08-30T04:43:52.463Z,17.50
2022-08-30T04:46:19.783Z,17.50
2022-08-30T04:48:47.192Z,17.40
2022-08-30T04:51:16.636Z,17.60
2022-08-30T04:53:44.567Z,17.60
2022-08-30T04:56:16.437Z,17.40
2022-08-30T04:58:44.450Z,17.50
2022-08-30T05:01:19.036Z,17.40
2022-08-30T05:03:48.033Z,17.20
2022-08-30T05:06:15.874Z,17.20
2022-08-30T05:08:46.665Z,17.20
2022-08-30T05:11:15.315Z,17.30
2022-08-30T05:13:42.530Z,17.20
2022-08-30T05:16:09.431Z,17.20
2022-08-30T05:18:37.346Z,17.30
2022-08-30T05:21:13.084Z,17.30
2022-08-30T05:23:41.102Z,17.30
2022-08-30T05:26:12.669Z,17.50
2022-08-30T05:28:39.728Z,17.40
2022-08-30T05:31:27.565Z,17.10
2022-08-30T05:33:55.423Z,16.90
2022-08-30T05:36:25.318Z,17.00
2022-08-30T05:38:52.408Z,17.10
2022-08-30T05:41:20.344Z,17.10
2022-08-30T05:43:47.829Z,17.30
2022-08-30T05:46:19.577Z,17.30
2022-08-30T05:48:48.879Z,17.20
2022-08-30T05:51:26.469Z,17.40
2022-08-30T05:53:54.297Z,17.50
2022-08-30T05:56:24.855Z,17.40
2022-08-30T05:58:53.404Z,17.40
2022-08-30T06:01:22.958Z,17.50
2022-08-30T06:03:49.742Z,17.70
2022-08-30T06:06:16.907Z,17.70
2022-08-30T06:08:46.065Z,17.90
2022-08-30T06:11:13.608Z,18.00
2022-08-30T06:13:40.559Z,18.00
2022-08-30T06:16:07.929Z,18.10
2022-08-30T06:18:34.642Z,18.00
2022-08-30T06:21:01.605Z,18.10
2022-08-30T06:23:28.956Z,18.30
2022-08-30T06:25:55.684Z,18.30
2022-08-30T06:28:22.860Z,18.40
2022-08-30T06:30:49.539Z,18.40
2022-08-30T06:33:16.429Z,18.60
2022-08-30T06:35:58.140Z,18.80
2022-08-30T06:38:26.072Z,18.90
2022-08-30T06:40:52.783Z,19.00
2022-08-30T06:43:19.574Z,19.00
2022-08-30T06:45:46.274Z,19.00
2022-08-30T06:48:13.221Z,19.00
2022-08-30T06:50:41.954Z,19.00
2022-08-30T06:53:09.745Z,18.90
2022-08-30T06:55:37.002Z,19.00
2022-08-30T06:58:04.294Z,19.10
2022-08-30T07:00:31.073Z,19.00
2022-08-30T07:02:58.491Z,19.20
2022-08-30T07:05:25.280Z,19.40
2022-08-30T07:07:54.865Z,19.40
2022-08-30T07:10:21.693Z,19.50
2022-08-30T07:12:49.002Z,19.70
2022-08-30T07:15:16.534Z,19.90
2022-08-30T07:18:01.881Z,20.00
2022-08-30T07:20:39.923Z,20.10
2022-08-30T07:23:08.529Z,20.10
2022-08-30T07:25:37.202Z,20.10
2022-08-30T07:28:05.545Z,20.30
2022-08-30T07:30:32.945Z,20.30
2022-08-30T07:32:59.759Z,20.30
2022-08-30T07:35:27.023Z,20.40
2022-08-30T07:37:53.762Z,20.60
2022-08-30T07:40:20.629Z,20.80
2022-08-30T07:42:47.378Z,20.80
2022-08-30T07:45:14.135Z,20.90
2022-08-30T07:47:41.256Z,21.00
2022-08-30T07:50:08.664Z,21.10
2022-08-30T07:55:03.040Z,21.10
2022-08-30T07:57:33.663Z,21.20
2022-08-30T08:00:00.954Z,21.40
2022-08-30T08:02:27.797Z,21.50
2022-08-30T08:04:54.567Z,21.70
2022-08-30T08:07:21.286Z,21.60
2022-08-30T08:09:47.976Z,21.70
2022-08-30T08:12:14.729Z,21.70
2022-08-30T08:14:41.444Z,21.80
2022-08-30T08:17:08.366Z,22.00
2022-08-30T08:19:35.042Z,22.20
2022-08-30T08:22:20.121Z,22.30
2022-08-30T08:24:48.599Z,22.40
2022-08-30T08:27:15.490Z,22.40
2022-08-30T08:29:42.275Z,22.40
2022-08-30T08:32:08.980Z,22.50
2022-08-30T08:34:36.650Z,22.70
2022-08-30T08:37:03.602Z,22.90
2022-08-30T08:39:30.346Z,23.00
2022-08-30T08:42:13.738Z,22.90
2022-08-30T08:45:00.752Z,22.80
2022-08-30T08:47:56.786Z,23.00
2022-08-30T08:50:24.233Z,23.20
2022-08-30T08:53:36.071Z,23.60
2022-08-30T08:56:15.143Z,23.80
2022-08-30T08:58:43.622Z,23.70
2022-08-30T09:01:12.725Z,23.70
2022-08-30T09:03:39.903Z,23.80
2022-08-30T09:06:45.676Z,23.80
2022-08-30T09:09:13.162Z,23.90
2022-08-30T09:11:42.016Z,23.80
2022-08-30T09:14:19.687Z,24.00
2022-08-30T09:17:02.927Z,24.10
2022-08-30T09:19:51.551Z,24.30
2022-08-30T09:22:26.290Z,24.50
2022-08-30T09:25:00.194Z,24.60
2022-08-30T09:27:34.682Z,24.70
2022-08-30T09:30:19.248Z,24.60
2022-08-30T09:33:01.406Z,24.60
2022-08-30T09:35:38.755Z,24.70
2022-08-30T09:38:29.787Z,24.60
2022-08-30T09:40:59.452Z,24.60
2022-08-30T09:43:32.620Z,24.70
2022-08-30T09:46:02.084Z,25.00
2022-08-30T09:48:40.570Z,25.20
2022-08-30T09:51:32.761Z,25.40
2022-08-30T09:54:26.116Z,25.50
2022-08-30T09:57:16.482Z,25.70
2022-08-30T10:00:11.743Z,25.90
2022-08-30T10:02:55.477Z,26.00
2022-08-30T10:05:40.726Z,26.00
2022-08-30T10:08:45.699Z,26.20
2022-08-30T10:11:30.690Z,26.30
2022-08-30T10:14:05.970Z,26.60
2022-08-30T10:16:42.357Z,26.80
2022-08-30T10:19:36.022Z,27.10
2022-08-30T10:22:08.952Z,27.30
2022-08-30T10:24:43.930Z,27.40
2022-08-30T10:27:23.950Z,27.40
2022-08-30T10:29:56.694Z,27.40
2022-08-30T10:32:39.526Z,27.40
2022-08-30T10:35:19.350Z,27.60
2022-08-30T10:38:01.893Z,27.90
2022-08-30T10:40:54.609Z,28.10
2022-08-30T10:43:34.318Z,28.40
2022-08-30T10:46:05.693Z,28.10
2022-08-30T10:48:44.429Z,27.90
2022-08-30T10:51:28.003Z,28.20
2022-08-30T10:54:22.821Z,28.20
2022-08-30T10:56:51.697Z,28.10
2022-08-30T10:59:20.395Z,28.40
2022-08-30T11:01:59.036Z,28.70
2022-08-30T11:05:23.987Z,28.90
2022-08-30T11:08:09.882Z,29.30
2022-08-30T11:10:56.826Z,29.40
2022-08-30T11:13:27.105Z,29.50
2022-08-30T11:15:57.406Z,29.60
2022-08-30T11:18:27.445Z,29.60
2022-08-30T11:21:16.413Z,29.90
2022-08-30T11:24:01.724Z,30.20
2022-08-30T11:26:49.844Z,30.60
2022-08-30T11:29:42.820Z,30.70
2022-08-30T11:32:12.248Z,30.60
2022-08-30T11:34:48.244Z,30.50
2022-08-30T11:37:42.405Z,30.50
2022-08-30T11:40:13.362Z,30.60
2022-08-30T11:42:52.396Z,30.40
2022-08-30T11:45:25.453Z,30.50
2022-08-30T11:48:04.599Z,30.80
2022-08-30T11:50:55.075Z,30.80
2022-08-30T11:53:46.689Z,31.10
2022-08-30T11:56:27.436Z,31.40
2022-08-30T11:59:15.387Z,31.50
2022-08-30T12:01:50.693Z,31.60
2022-08-30T12:04:22.154Z,31.60
2022-08-30T12:06:58.853Z,31.60
2022-08-30T12:09:26.309Z,31.30
2022-08-30T12:12:00.106Z,31.10
2022-08-30T12:14:41.143Z,31.00
2022-08-30T12:17:43.639Z,31.00
2022-08-30T12:20:19.683Z,31.30
2022-08-30T12:22:48.962Z,31.30
2022-08-30T12:25:21.756Z,31.30
2022-08-30T12:27:49.603Z,31.30
2022-08-30T12:30:26.903Z,30.80
2022-08-30T12:32:54.719Z,30.80
2022-08-30T12:35:25.653Z,31.10
2022-08-30T12:38:01.785Z,31.30
2022-08-30T12:40:31.362Z,31.50
2022-08-30T12:43:07.875Z,31.70
2022-08-30T12:45:44.006Z,31.60
2022-08-30T12:48:15.812Z,31.20
2022-08-30T12:50:51.780Z,31.10
2022-08-30T12:53:42.443Z,30.80
2022-08-30T12:56:12.809Z,30.60
2022-08-30T12:58:52.479Z,30.40
2022-08-30T13:01:29.656Z,30.30
2022-08-30T13:04:13.347Z,30.20
2022-08-30T13:06:53.096Z,30.20
2022-08-30T13:09:32.509Z,30.50
2022-08-30T13:12:04.685Z,30.60
2022-08-30T13:14:43.611Z,30.50
2022-08-30T13:17:19.366Z,30.40
2022-08-30T13:20:19.394Z,30.10
2022-08-30T13:23:07.817Z,30.00
2022-08-30T13:25:38.155Z,30.10
2022-08-30T13:28:07.045Z,30.10
2022-08-30T13:30:34.570Z,30.30
2022-08-30T13:33:02.264Z,30.60
2022-08-30T13:35:30.306Z,30.70
2022-08-30T13:37:59.695Z,30.90
2022-08-30T13:40:26.437Z,30.80
2022-08-30T13:42:53.246Z,30.70
2022-08-30T13:48:07.719Z,30.70
2022-08-30T13:50:34.427Z,30.90
2022-08-30T13:53:01.233Z,31.10
2022-08-30T13:55:28.493Z,31.10
2022-08-30T13:57:56.427Z,31.00
2022-08-30T14:00:26.336Z,30.90
2022-08-30T14:02:57.286Z,30.80
2022-08-30T14:11:03.709Z,30.90
2022-08-30T14:13:30.600Z,30.90
2022-08-30T14:18:48.072Z,30.90
2022-08-30T14:21:16.392Z,30.90
2022-08-30T14:23:43.097Z,31.00
2022-08-30T14:26:23.453Z,31.00
2022-08-30T14:28:51.865Z,31.00
2022-08-30T14:31:19.777Z,31.10
2022-08-30T14:33:47.153Z,31.10
2022-08-30T14:36:15.835Z,31.00
2022-08-30T14:38:44.860Z,31.10
2022-08-30T14:41:11.762Z,31.10
2022-08-30T14:43:40.609Z,31.00
2022-08-30T14:46:09.011Z,30.90
2022-08-30T14:48:38.383Z,30.70
2022-08-30T14:51:16.768Z,30.80
2022-08-30T14:53:44.351Z,30.70
2022-08-30T14:56:14.470Z,30.40
2022-08-30T14:58:41.391Z,30.20
2022-08-30T15:01:09.997Z,30.10
2022-08-30T15:03:40.302Z,30.10
2022-08-30T15:06:07.868Z,30.20
2022-08-30T15:08:35.986Z,30.30
2022-08-30T15:11:08.569Z,30.40
2022-08-30T15:13:35.626Z,30.50
2022-08-30T15:16:02.845Z,30.50
2022-08-30T15:18:29.567Z,30.30
2022-08-30T15:20:56.557Z,30.20
2022-08-30T15:23:24.804Z,30.10
2022-08-30T15:25:51.787Z,30.20
2022-08-30T15:28:19.254Z,30.20
2022-08-30T15:30:46.131Z,30.20
2022-08-30T15:33:12.842Z,30.20
2022-08-30T15:35:39.526Z,30.20
2022-08-30T15:38:06.522Z,30.20
2022-08-30T15:40:33.575Z,30.20
2022-08-30T15:43:03.835Z,30.10
2022-08-30T15:45:30.822Z,30.10
2022-08-30T15:48:01.080Z,30.00
2022-08-30T15:50:28.021Z,29.90
2022-08-30T15:52:55.134Z,29.80
2022-08-30T15:55:22.133Z,29.80
2022-08-30T15:57:48.879Z,29.80
2022-08-30T16:00:16.105Z,29.80
2022-08-30T16:02:43.852Z,29.50
2022-08-30T16:05:10.969Z,29.30
2022-08-30T16:07:40.784Z,29.20
2022-08-30T16:10:08.745Z,29.20
2022-08-30T16:12:35.470Z,29.10
2022-08-30T16:15:02.229Z,28.90
2022-08-30T16:17:28.993Z,28.90
2022-08-30T16:19:58.888Z,28.80
2022-08-30T16:22:26.441Z,28.70
2022-08-30T16:24:53.248Z,28.50
2022-08-30T16:27:21.071Z,28.50
2022-08-30T16:29:48.457Z,28.50
2022-08-30T16:32:17.507Z,28.40
2022-08-30T16:34:44.252Z,28.20
2022-08-30T16:37:11.024Z,28.10
2022-08-30T16:39:37.949Z,28.10
2022-08-30T16:42:06.721Z,28.10
2022-08-30T16:44:33.830Z,28.10
2022-08-30T16:47:01.674Z,28.00
2022-08-30T16:49:28.629Z,27.90
2022-08-30T16:51:55.941Z,27.80
2022-08-30T16:54:23.594Z,27.80
2022-08-30T16:56:50.497Z,27.70
2022-08-30T16:59:17.761Z,27.60
2022-08-30T17:01:45.865Z,27.50
2022-08-30T17:04:18.439Z,27.40
2022-08-30T17:06:47.794Z,27.40
2022-08-30T17:09:16.988Z,27.30
2022-08-30T17:11:44.955Z,27.20
2022-08-30T17:14:11.916Z,27.10
2022-08-30T17:16:39.065Z,27.10
2022-08-30T17:19:08.469Z,27.10
2022-08-30T17:21:35.465Z,27.00
2022-08-30T17:24:03.333Z,27.00
2022-08-30T17:26:35.911Z,26.90
2022-08-30T17:29:03.957Z,26.90
2022-08-30T17:31:31.722Z,26.70
2022-08-30T17:34:03.312Z,26.70
2022-08-30T17:36:32.572Z,26.70
2022-08-30T17:39:05.208Z,26.60
2022-08-30T17:41:39.609Z,26.50
2022-08-30T17:44:10.776Z,26.40
2022-08-30T17:46:37.873Z,26.30
2022-08-30T17:49:04.749Z,26.20
2022-08-30T17:51:32.244Z,26.20
2022-08-30T17:53:59.971Z,26.10
2022-08-30T17:56:34.190Z,26.00
2022-08-30T17:59:04.824Z,25.90
2022-08-30T18:01:31.704Z,25.90
2022-08-30T18:04:01.971Z,25.80
2022-08-30T18:06:33.203Z,25.80
2022-08-30T18:09:01.504Z,25.60
2022-08-30T18:11:28.386Z,25.50
2022-08-30T18:13:55.195Z,25.40
2022-08-30T18:19:09.628Z,25.30
2022-08-30T18:21:38.002Z,25.20
2022-08-30T18:24:05.625Z,25.00
2022-08-30T18:26:32.996Z,24.80
2022-08-30T18:29:00.524Z,24.50
2022-08-30T18:31:27.531Z,24.30
2022-08-30T18:33:55.194Z,24.40
2022-08-30T18:36:21.941Z,24.30
2022-08-30T18:38:48.977Z,24.30
2022-08-30T18:41:17.120Z,24.20
2022-08-30T18:43:44.761Z,24.20
2022-08-30T18:46:13.875Z,24.10
2022-08-30T18:48:41.722Z,23.90
2022-08-30T18:51:13.501Z,23.70
2022-08-30T18:53:41.354Z,23.50
2022-08-30T18:56:08.861Z,23.30
2022-08-30T18:58:36.505Z,23.40
2022-08-30T19:01:03.532Z,23.50
2022-08-30T19:03:33.602Z,23.30
2022-08-30T19:06:09.694Z,23.10
2022-08-30T19:08:37.321Z,22.80
2022-08-30T19:11:04.761Z,22.60
2022-08-30T19:13:34.689Z,22.70
2022-08-30T19:16:02.243Z,22.70
2022-08-30T19:18:29.027Z,22.70
2022-08-30T19:20:56.714Z,22.60
2022-08-30T19:23:26.882Z,22.60
2022-08-30T19:25:54.238Z,22.50
2022-08-30T19:28:21.685Z,22.30
2022-08-30T19:30:48.602Z,22.40
2022-08-30T19:33:17.267Z,22.30
2022-08-30T19:35:48.931Z,22.30
2022-08-30T19:38:17.642Z,22.20
2022-08-30T19:40:44.609Z,22.10
2022-08-30T19:43:11.488Z,22.10
2022-08-30T19:45:38.528Z,21.90
2022-08-30T19:48:05.444Z,21.90
2022-08-30T19:50:32.368Z,21.90
2022-08-30T19:52:59.204Z,21.80
2022-08-30T19:55:28.575Z,21.70
2022-08-30T19:57:57.426Z,21.70
2022-08-30T20:00:24.312Z,21.60
2022-08-30T20:02:51.420Z,21.40
2022-08-30T20:05:21.306Z,21.40
2022-08-30T20:07:50.931Z,21.20
2022-08-30T20:10:20.514Z,21.10
2022-08-30T20:12:49.895Z,21.20
2022-08-30T20:15:18.408Z,21.20
2022-08-30T20:18:03.442Z,21.20
2022-08-30T20:20:33.632Z,21.20
2022-08-30T20:23:04.316Z,21.30
2022-08-30T20:24:27.132Z,25.40
2022-08-30T20:25:31.858Z,21.30
2022-08-30T20:27:59.338Z,21.20
2022-08-30T20:30:26.217Z,21.10
2022-08-30T20:32:54.424Z,21.30
2022-08-30T20:35:21.460Z,21.20
2022-08-30T20:37:49.302Z,21.20
2022-08-30T20:40:16.908Z,21.20
2022-08-30T20:42:46.199Z,21.10
2022-08-30T20:45:15.322Z,20.90
2022-08-30T20:47:42.946Z,21.10
2022-08-30T20:50:13.777Z,21.10
2022-08-30T20:52:41.645Z,21.10
2022-08-30T20:55:09.957Z,21.20
2022-08-30T20:57:36.758Z,21.20
2022-08-30T21:00:06.112Z,21.10
2022-08-30T21:02:34.307Z,21.00
2022-08-30T21:05:04.422Z,21.00
2022-08-30T21:07:31.301Z,21.00
2022-08-30T21:09:58.179Z,21.10
2022-08-30T21:12:25.409Z,20.90
2022-08-30T21:14:52.197Z,20.80
2022-08-30T21:17:18.933Z,20.90
2022-08-30T21:19:46.276Z,20.90
2022-08-30T21:22:13.286Z,20.70
2022-08-30T21:24:40.076Z,20.50
2022-08-30T21:27:07.670Z,20.70
2022-08-30T21:29:34.402Z,20.80
2022-08-30T21:32:01.137Z,21.00
2022-08-30T21:34:27.846Z,21.10
2022-08-30T21:36:54.809Z,21.20
2022-08-30T21:39:27.086Z,21.20
2022-08-30T21:41:59.526Z,21.10
2022-08-30T21:44:27.057Z,21.10
2022-08-30T21:46:53.991Z,21.10
2022-08-30T21:49:25.297Z,21.10
2022-08-30T21:51:53.780Z,21.30
2022-08-30T21:54:21.431Z,21.30
2022-08-30T21:56:50.825Z,21.40
2022-08-30T21:59:19.457Z,21.30
2022-08-30T22:01:50.364Z,21.30
2022-08-30T22:04:17.502Z,21.30
2022-08-30T22:06:50.170Z,21.30
2022-08-30T22:09:21.886Z,21.20
2022-08-30T22:11:50.030Z,21.20
2022-08-30T22:14:18.149Z,21.20
2022-08-30T22:16:46.069Z,21.30
2022-08-30T22:19:13.258Z,21.20
2022-08-30T22:21:41.950Z,21.30
2022-08-30T22:24:17.525Z,21.20
2022-08-30T22:26:45.705Z,21.20
2022-08-30T22:29:24.835Z,21.10
2022-08-30T22:31:51.944Z,21.20
2022-08-30T22:34:19.198Z,21.00
2022-08-30T22:36:46.057Z,21.00
2022-08-30T22:39:13.484Z,21.00
2022-08-30T22:41:42.811Z,21.10
2022-08-30T22:44:10.162Z,21.00
2022-08-30T22:46:38.163Z,21.00
2022-08-30T22:49:07.327Z,21.20
2022-08-30T22:51:34.649Z,21.30
2022-08-30T22:54:02.547Z,21.20
2022-08-30T22:56:32.570Z,21.00
2022-08-30T22:58:59.443Z,20.90
2022-08-30T23:01:32.917Z,20.90
2022-08-30T23:04:02.841Z,20.80
2022-08-30T23:06:30.488Z,20.80
2022-08-30T23:08:57.629Z,20.80
2022-08-30T23:11:25.269Z,20.80
2022-08-30T23:13:52.968Z,20.80
2022-08-30T23:16:21.161Z,20.80
2022-08-30T23:18:49.009Z,20.70
2022-08-30T23:21:21.152Z,20.70
2022-08-30T23:24:07.452Z,20.60
2022-08-30T23:26:54.342Z,20.60
2022-08-30T23:29:40.249Z,20.60
2022-08-30T23:32:26.536Z,20.70
2022-08-30T23:35:12.075Z,20.90
2022-08-30T23:37:57.558Z,20.90
2022-08-30T23:40:43.262Z,20.80
2022-08-30T23:43:29.630Z,20.70
2022-08-30T23:46:19.305Z,20.70
2022-08-30T23:49:07.095Z,20.60
2022-08-30T23:51:54.314Z,20.40
2022-08-30T23:54:43.827Z,20.40
2022-08-30T23:57:29.368Z,20.60
